Time;durP1;ratioP1;P1;durP2;ratioP2;P2;SDS_P1;SDS_P2;PMS_P1;PMS_P2;Temp;Humidity;BMP_temperature;BMP_pressure;BME280_temperature;BME280_humidity;BME280_pressure;Samples;Min_cycle;Max_cycle;Signal;HPM_P1;HPM_P2
2023/03/08 00:00:11;;;;;;;11.47;5.33;;;;;;;;;;5011882;28;20400;-81
2023/03/08 00:02:36;;;;;;;8.83;4.70;;;;;;;;;;5012754;28;20121;-81
2023/03/08 00:05:03;;;;;;;11.80;4.80;;;;;;;;;;5012655;28;20057;-81
2023/03/08 00:07:28;;;;;;;11.83;5.33;;;;;;;;;;5012529;28;20466;-82
2023/03/08 00:09:54;;;;;;;9.77;4.93;;;;;;;;;;5012196;28;20030;-81
2023/03/08 00:12:21;;;;;;;8.03;4.30;;;;;;;;;;5012445;28;20040;-82
2023/03/08 00:14:47;;;;;;;10.43;4.27;;;;;;;;;;5011974;28;20134;-82
2023/03/08 00:17:13;;;;;;;10.90;5.23;;;;;;;;;;5011485;28;20397;-80
2023/03/08 00:19:38;;;;;;;11.43;4.43;;;;;;;;;;5011471;28;20185;-81
2023/03/08 00:22:04;;;;;;;10.07;4.97;;;;;;;;;;5013369;28;20045;-81
2023/03/08 00:24:30;;;;;;;9.67;4.43;;;;;;;;;;5014120;28;20057;-81
2023/03/08 00:26:55;;;;;;;10.13;5.13;;;;;;;;;;5011511;28;20026;-80
2023/03/08 00:29:21;;;;;;;8.97;4.23;;;;;;;;;;5013275;28;20746;-81
2023/03/08 00:31:46;;;;;;;9.67;4.57;;;;;;;;;;5013157;28;20108;-80
2023/03/08 00:34:12;;;;;;;9.40;5.17;;;;;;;;;;5012911;28;20034;-79
2023/03/08 00:36:37;;;;;;;8.83;4.47;;;;;;;;;;5012333;28;20022;-78
2023/03/08 00:39:04;;;;;;;10.10;5.07;;;;;;;;;;5005991;28;20478;-80
2023/03/08 00:41:29;;;;;;;9.17;4.23;;;;;;;;;;4992917;28;20038;-80
2023/03/08 00:43:55;;;;;;;11.33;4.93;;;;;;;;;;5012207;28;20037;-79
2023/03/08 00:46:20;;;;;;;11.33;4.93;;;;;;;;;;5013194;28;20032;-80
2023/03/08 00:48:46;;;;;;;10.27;5.53;;;;;;;;;;5012932;28;20036;-79
2023/03/08 00:51:14;;;;;;;8.20;4.57;;;;;;;;;;5011134;28;20096;-79
2023/03/08 00:53:40;;;;;;;11.80;5.50;;;;;;;;;;5010733;28;20030;-80
2023/03/08 00:56:05;;;;;;;9.20;5.13;;;;;;;;;;5013014;28;20029;-79
2023/03/08 00:58:31;;;;;;;11.73;5.23;;;;;;;;;;5011003;28;20124;-80
2023/03/08 01:00:58;;;;;;;9.33;4.63;;;;;;;;;;5010520;28;20029;-78
2023/03/08 01:03:24;;;;;;;10.37;5.13;;;;;;;;;;5009978;28;20034;-80
2023/03/08 01:05:52;;;;;;;9.27;5.07;;;;;;;;;;4994431;28;20041;-80
2023/03/08 01:08:19;;;;;;;12.67;4.80;;;;;;;;;;5011061;28;20474;-80
2023/03/08 01:10:56;;;;;;;10.40;4.70;;;;;;;;;;5011014;28;20222;-80
2023/03/08 01:13:23;;;;;;;9.30;5.40;;;;;;;;;;5012026;28;20432;-81
2023/03/08 01:15:49;;;;;;;9.77;5.30;;;;;;;;;;5010662;28;20036;-80
2023/03/08 01:18:15;;;;;;;9.70;4.63;;;;;;;;;;5011775;28;20112;-80
2023/03/08 01:20:41;;;;;;;11.30;5.47;;;;;;;;;;5012841;28;20040;-81
2023/03/08 01:23:07;;;;;;;9.53;5.33;;;;;;;;;;5011174;28;20030;-81
2023/03/08 01:25:32;;;;;;;11.63;5.13;;;;;;;;;;5012679;28;20366;-81
2023/03/08 01:27:57;;;;;;;11.50;5.33;;;;;;;;;;5011308;28;20036;-82
2023/03/08 01:30:23;;;;;;;12.97;6.17;;;;;;;;;;5011291;28;20038;-81
2023/03/08 01:32:49;;;;;;;10.00;5.70;;;;;;;;;;5011117;28;20121;-80
2023/03/08 01:35:14;;;;;;;10.87;5.47;;;;;;;;;;5013620;28;20040;-80
2023/03/08 01:37:40;;;;;;;12.43;6.30;;;;;;;;;;5011407;28;20030;-80
2023/03/08 01:40:07;;;;;;;11.87;6.10;;;;;;;;;;5009637;28;20405;-80
2023/03/08 01:42:32;;;;;;;12.13;5.63;;;;;;;;;;5012138;28;20078;-80
2023/03/08 01:45:02;;;;;;;10.67;5.63;;;;;;;;;;5010013;28;20265;-80
2023/03/08 01:47:32;;;;;;;15.87;6.10;;;;;;;;;;5011137;28;20140;-80
2023/03/08 01:50:06;;;;;;;20.43;6.23;;;;;;;;;;5012331;28;20385;-80
2023/03/08 01:52:37;;;;;;;12.23;6.17;;;;;;;;;;5010897;28;20095;-81
2023/03/08 01:55:08;;;;;;;11.17;5.80;;;;;;;;;;5011721;28;20026;-81
2023/03/08 01:57:47;;;;;;;10.87;6.13;;;;;;;;;;5010023;28;20026;-81
2023/03/08 02:00:21;;;;;;;12.53;6.00;;;;;;;;;;5009378;28;20033;-81
2023/03/08 02:02:51;;;;;;;12.50;5.17;;;;;;;;;;5010234;28;20033;-79
2023/03/08 02:05:18;;;;;;;13.67;6.17;;;;;;;;;;5010709;28;20498;-80
2023/03/08 02:07:43;;;;;;;12.47;6.33;;;;;;;;;;5009882;28;20072;-80
2023/03/08 02:10:10;;;;;;;10.20;5.60;;;;;;;;;;5011581;28;20053;-81
2023/03/08 02:12:37;;;;;;;10.60;5.60;;;;;;;;;;5000483;28;20036;-80
2023/03/08 02:15:07;;;;;;;10.80;5.43;;;;;;;;;;4996652;28;20113;-81
2023/03/08 02:17:35;;;;;;;12.60;6.00;;;;;;;;;;4998853;28;20032;-81
2023/03/08 02:20:14;;;;;;;14.80;5.63;;;;;;;;;;5006809;28;20036;-79
2023/03/08 02:22:42;;;;;;;12.80;6.73;;;;;;;;;;5002039;28;20069;-80
2023/03/08 02:25:15;;;;;;;12.83;5.50;;;;;;;;;;5010415;28;20437;-78
2023/03/08 02:27:40;;;;;;;11.63;5.67;;;;;;;;;;4998981;28;20098;-79
2023/03/08 02:30:08;;;;;;;13.87;5.57;;;;;;;;;;5006610;28;20050;-79
2023/03/08 02:32:33;;;;;;;12.20;5.90;;;;;;;;;;5003110;28;20030;-80
2023/03/08 02:34:59;;;;;;;14.43;6.03;;;;;;;;;;5011153;28;20037;-80
2023/03/08 02:37:24;;;;;;;10.63;5.80;;;;;;;;;;5000838;28;20034;-80
2023/03/08 02:39:50;;;;;;;15.03;5.70;;;;;;;;;;4999589;28;20101;-80
2023/03/08 02:42:15;;;;;;;13.07;5.90;;;;;;;;;;4997290;28;20096;-80
2023/03/08 02:44:41;;;;;;;15.13;6.03;;;;;;;;;;4999574;28;20086;-80
2023/03/08 02:47:06;;;;;;;11.87;5.50;;;;;;;;;;5002554;28;20030;-80
2023/03/08 02:49:32;;;;;;;9.90;5.23;;;;;;;;;;5000909;28;20092;-80
2023/03/08 02:51:58;;;;;;;15.90;6.47;;;;;;;;;;5006864;28;20034;-81
2023/03/08 02:54:23;;;;;;;12.47;5.40;;;;;;;;;;4999211;28;20058;-80
2023/03/08 02:56:49;;;;;;;10.73;5.37;;;;;;;;;;5000711;28;20108;-80
2023/03/08 02:59:14;;;;;;;10.70;5.53;;;;;;;;;;5000564;28;20026;-80
2023/03/08 03:01:40;;;;;;;13.37;5.20;;;;;;;;;;5000127;28;20124;-82
2023/03/08 03:04:05;;;;;;;11.33;6.23;;;;;;;;;;5005875;28;20188;-81
2023/03/08 03:06:31;;;;;;;11.77;5.43;;;;;;;;;;4997853;28;20030;-80
2023/03/08 03:08:57;;;;;;;10.83;5.20;;;;;;;;;;5008661;28;20061;-80
2023/03/08 03:11:23;;;;;;;13.93;5.53;;;;;;;;;;5011159;28;20089;-81
2023/03/08 03:13:57;;;;;;;10.40;5.23;;;;;;;;;;5010735;28;20052;-81
2023/03/08 03:16:24;;;;;;;14.80;5.67;;;;;;;;;;5010549;28;20029;-81
2023/03/08 03:18:52;;;;;;;11.10;5.37;;;;;;;;;;5009894;28;20068;-81
2023/03/08 03:21:17;;;;;;;12.50;5.53;;;;;;;;;;5009092;28;20478;-80
2023/03/08 03:23:43;;;;;;;10.70;5.27;;;;;;;;;;5008918;28;20037;-81
2023/03/08 03:26:14;;;;;;;10.43;5.30;;;;;;;;;;5008696;28;20079;-79
2023/03/08 03:28:39;;;;;;;10.38;5.10;;;;;;;;;;5010631;28;20042;-80
2023/03/08 03:31:13;;;;;;;12.53;5.93;;;;;;;;;;5012450;28;20096;-81
2023/03/08 03:33:39;;;;;;;12.87;5.83;;;;;;;;;;5014055;28;20022;-80
2023/03/08 03:36:06;;;;;;;10.83;6.33;;;;;;;;;;5014138;28;20030;-80
2023/03/08 03:38:32;;;;;;;12.47;5.83;;;;;;;;;;5012099;28;20037;-81
2023/03/08 03:41:05;;;;;;;8.83;4.90;;;;;;;;;;5011379;28;20503;-80
2023/03/08 03:43:31;;;;;;;7.73;4.27;;;;;;;;;;5013443;28;20030;-81
2023/03/08 03:45:58;;;;;;;7.47;4.67;;;;;;;;;;5011418;28;20038;-81
2023/03/08 03:48:24;;;;;;;8.73;4.90;;;;;;;;;;5014184;28;20079;-81
2023/03/08 03:51:01;;;;;;;11.83;5.60;;;;;;;;;;5014365;28;20026;-81
2023/03/08 03:53:28;;;;;;;11.33;5.00;;;;;;;;;;5013428;28;20018;-81
2023/03/08 03:55:54;;;;;;;14.20;5.67;;;;;;;;;;5012941;28;20038;-81
2023/03/08 03:58:19;;;;;;;8.83;4.77;;;;;;;;;;5014476;28;20430;-81
2023/03/08 04:00:45;;;;;;;9.93;5.37;;;;;;;;;;5013674;28;20076;-81
2023/03/08 04:03:10;;;;;;;10.37;5.77;;;;;;;;;;5011257;28;20529;-81
2023/03/08 04:05:36;;;;;;;9.03;5.17;;;;;;;;;;5013161;28;20038;-80
2023/03/08 04:08:02;;;;;;;12.87;5.57;;;;;;;;;;5011360;28;20026;-80
2023/03/08 04:10:28;;;;;;;11.13;5.33;;;;;;;;;;5013790;28;20087;-81
2023/03/08 04:12:53;;;;;;;6.43;4.10;;;;;;;;;;5013342;28;20026;-80
2023/03/08 04:15:18;;;;;;;6.83;4.30;;;;;;;;;;5012099;28;20032;-80
2023/03/08 04:17:44;;;;;;;9.00;3.50;;;;;;;;;;5012100;28;20037;-81
2023/03/08 04:20:10;;;;;;;7.23;3.40;;;;;;;;;;5011394;28;20041;-81
2023/03/08 04:22:36;;;;;;;5.33;3.73;;;;;;;;;;5013248;28;20125;-81
2023/03/08 04:25:01;;;;;;;9.37;3.20;;;;;;;;;;5011406;28;20033;-81
2023/03/08 04:27:27;;;;;;;6.10;2.87;;;;;;;;;;5013003;28;20030;-81
2023/03/08 04:29:52;;;;;;;7.50;3.70;;;;;;;;;;5011558;28;20037;-80
2023/03/08 04:32:18;;;;;;;5.67;2.67;;;;;;;;;;5012068;28;20036;-81
2023/03/08 04:34:43;;;;;;;5.20;2.77;;;;;;;;;;5013228;28;20036;-81
2023/03/08 04:37:12;;;;;;;4.77;3.50;;;;;;;;;;5012695;28;20072;-80
2023/03/08 04:39:38;;;;;;;3.77;2.23;;;;;;;;;;5000780;28;20057;-80
2023/03/08 04:42:04;;;;;;;11.03;3.00;;;;;;;;;;4991891;28;20038;-81
2023/03/08 04:44:29;;;;;;;4.33;2.80;;;;;;;;;;5003396;28;20050;-80
2023/03/08 04:46:55;;;;;;;10.93;3.73;;;;;;;;;;5011235;28;20433;-80
2023/03/08 04:49:21;;;;;;;4.07;2.30;;;;;;;;;;5012785;28;20038;-80
2023/03/08 04:51:47;;;;;;;5.77;3.17;;;;;;;;;;5012238;28;20030;-80
2023/03/08 04:54:12;;;;;;;10.80;2.60;;;;;;;;;;5012886;28;20034;-80
2023/03/08 04:56:38;;;;;;;6.33;2.27;;;;;;;;;;5013443;28;20057;-80
2023/03/08 04:59:03;;;;;;;5.00;2.70;;;;;;;;;;5012823;28;20172;-80
2023/03/08 05:01:29;;;;;;;4.97;2.13;;;;;;;;;;5013511;28;20048;-80
2023/03/08 05:03:54;;;;;;;3.67;1.73;;;;;;;;;;5010871;28;20030;-80
2023/03/08 05:06:22;;;;;;;3.40;2.60;;;;;;;;;;5012974;28;20033;-79
2023/03/08 05:08:48;;;;;;;4.87;1.93;;;;;;;;;;5011959;28;20030;-81
2023/03/08 05:11:22;;;;;;;3.87;2.70;;;;;;;;;;5011008;28;20041;-80
2023/03/08 05:13:48;;;;;;;2.83;2.03;;;;;;;;;;5011015;28;20018;-80
2023/03/08 05:16:14;;;;;;;3.27;2.10;;;;;;;;;;5010620;28;20092;-80
2023/03/08 05:18:41;;;;;;;5.17;1.83;;;;;;;;;;5010938;28;20033;-81
2023/03/08 05:21:11;;;;;;;2.33;1.77;;;;;;;;;;5010893;28;20105;-79
2023/03/08 05:23:37;;;;;;;1.77;1.57;;;;;;;;;;5010877;28;20376;-80
2023/03/08 05:26:05;;;;;;;3.57;2.10;;;;;;;;;;5011701;28;20112;-81
2023/03/08 05:28:35;;;;;;;5.67;1.80;;;;;;;;;;5012297;28;20033;-80
2023/03/08 05:31:06;;;;;;;3.67;2.20;;;;;;;;;;5012777;28;20037;-81
2023/03/08 05:33:32;;;;;;;5.20;2.03;;;;;;;;;;5012893;28;20373;-79
2023/03/08 05:35:57;;;;;;;11.73;2.90;;;;;;;;;;4991793;28;20216;-80
2023/03/08 05:38:25;;;;;;;5.23;2.57;;;;;;;;;;4993567;28;20026;-82
2023/03/08 05:40:52;;;;;;;5.03;2.00;;;;;;;;;;5010559;28;20061;-81
2023/03/08 05:43:18;;;;;;;4.37;2.33;;;;;;;;;;5011485;28;20104;-81
2023/03/08 05:45:56;;;;;;;9.97;2.97;;;;;;;;;;5012932;28;20030;-82
2023/03/08 05:48:22;;;;;;;9.53;3.60;;;;;;;;;;5012936;28;20029;-81
2023/03/08 05:50:48;;;;;;;18.93;5.10;;;;;;;;;;5013588;28;20535;-81
2023/03/08 05:53:13;;;;;;;6.93;3.63;;;;;;;;;;5012421;28;20477;-80
2023/03/08 05:55:39;;;;;;;7.57;4.20;;;;;;;;;;5013028;28;20042;-81
2023/03/08 05:58:04;;;;;;;21.00;5.87;;;;;;;;;;5011360;28;20250;-81
2023/03/08 06:00:30;;;;;;;8.67;4.20;;;;;;;;;;5009724;28;20022;-80
2023/03/08 06:02:58;;;;;;;8.80;3.43;;;;;;;;;;5002718;28;20072;-81
2023/03/08 06:05:24;;;;;;;8.17;3.07;;;;;;;;;;5004732;28;20109;-80
2023/03/08 06:07:49;;;;;;;7.73;3.53;;;;;;;;;;5011042;28;20145;-81
2023/03/08 06:10:16;;;;;;;8.87;4.60;;;;;;;;;;5011656;28;20037;-81
2023/03/08 06:12:41;;;;;;;13.63;4.57;;;;;;;;;;5007132;28;20379;-80
2023/03/08 06:15:07;;;;;;;9.90;4.27;;;;;;;;;;5001768;28;20041;-80
2023/03/08 06:17:33;;;;;;;9.83;3.43;;;;;;;;;;4997461;28;20053;-82
2023/03/08 06:19:58;;;;;;;12.77;4.00;;;;;;;;;;5002441;28;20064;-79
2023/03/08 06:22:24;;;;;;;8.10;4.10;;;;;;;;;;5004732;28;20038;-82
2023/03/08 06:24:49;;;;;;;14.70;4.50;;;;;;;;;;5007148;28;20112;-81
2023/03/08 06:27:16;;;;;;;13.93;4.40;;;;;;;;;;5002888;28;20064;-81
2023/03/08 06:29:42;;;;;;;11.60;4.90;;;;;;;;;;4996620;28;20057;-81
2023/03/08 06:32:07;;;;;;;8.77;4.90;;;;;;;;;;4992127;28;20029;-81
2023/03/08 06:34:33;;;;;;;13.50;5.17;;;;;;;;;;4999708;28;20075;-80
2023/03/08 06:36:59;;;;;;;15.17;5.43;;;;;;;;;;4998601;28;20030;-79
2023/03/08 06:39:24;;;;;;;11.53;6.10;;;;;;;;;;5001806;28;20038;-80
2023/03/08 06:41:50;;;;;;;12.13;5.30;;;;;;;;;;5009105;28;20048;-81
2023/03/08 06:44:17;;;;;;;8.90;4.97;;;;;;;;;;5005038;28;20437;-82
2023/03/08 06:46:42;;;;;;;13.17;6.00;;;;;;;;;;5008025;28;20026;-79
2023/03/08 06:49:08;;;;;;;11.03;6.00;;;;;;;;;;5006418;28;20497;-80
2023/03/08 06:51:33;;;;;;;10.23;5.20;;;;;;;;;;4999321;28;20030;-80
2023/03/08 06:53:59;;;;;;;14.70;6.00;;;;;;;;;;5010052;28;20349;-80
2023/03/08 06:56:26;;;;;;;13.50;5.73;;;;;;;;;;5006694;28;20030;-81
2023/03/08 06:58:52;;;;;;;16.97;6.67;;;;;;;;;;5004729;28;20065;-80
2023/03/08 07:01:18;;;;;;;12.37;5.37;;;;;;;;;;5004868;28;20434;-81
2023/03/08 07:03:45;;;;;;;9.57;5.10;;;;;;;;;;4999408;28;20041;-80
2023/03/08 07:06:10;;;;;;;15.17;6.13;;;;;;;;;;5014071;28;20030;-81
2023/03/08 07:08:38;;;;;;;11.13;5.33;;;;;;;;;;5014998;28;20033;-79
2023/03/08 07:11:05;;;;;;;11.17;4.60;;;;;;;;;;5012727;28;20031;-82
2023/03/08 07:13:31;;;;;;;10.87;5.17;;;;;;;;;;5008972;28;20101;-82
2023/03/08 07:16:03;;;;;;;10.83;5.30;;;;;;;;;;5008761;28;20073;-82
2023/03/08 07:18:29;;;;;;;;;;;;;;;;;;4999591;28;20026;-81
2023/03/08 07:20:56;;;;;;;12.60;6.50;;;;;;;;;;5014283;28;19925;-82
2023/03/08 07:23:21;;;;;;;12.37;4.90;;;;;;;;;;5015161;28;20120;-79
2023/03/08 07:25:47;;;;;;;8.47;4.37;;;;;;;;;;5014972;28;20303;-80
2023/03/08 07:28:13;;;;;;;9.50;4.60;;;;;;;;;;5010646;28;20030;-81
2023/03/08 07:30:38;;;;;;;13.03;5.30;;;;;;;;;;5013988;28;20030;-80
2023/03/08 07:33:04;;;;;;;12.63;5.67;;;;;;;;;;4997586;28;20026;-81
2023/03/08 07:35:29;;;;;;;11.83;5.60;;;;;;;;;;5007565;28;20049;-80
2023/03/08 07:37:55;;;;;;;10.63;5.10;;;;;;;;;;5012733;28;20026;-81
2023/03/08 07:40:21;;;;;;;27.43;6.00;;;;;;;;;;5013284;28;20481;-82
2023/03/08 07:42:48;;;;;;;12.17;5.30;;;;;;;;;;5011310;28;20148;-80
2023/03/08 07:45:13;;;;;;;10.47;5.20;;;;;;;;;;5009113;28;20437;-80
2023/03/08 07:47:40;;;;;;;8.87;5.07;;;;;;;;;;5012728;28;20049;-79
2023/03/08 07:50:07;;;;;;;10.57;5.33;;;;;;;;;;5012115;28;20029;-81
2023/03/08 07:52:32;;;;;;;10.50;5.37;;;;;;;;;;5013619;28;20080;-80
2023/03/08 07:54:58;;;;;;;12.67;5.60;;;;;;;;;;5006801;28;20026;-80
2023/03/08 07:57:23;;;;;;;10.57;5.70;;;;;;;;;;5003369;28;20466;-81
2023/03/08 07:59:49;;;;;;;12.77;5.50;;;;;;;;;;5012929;28;20321;-82
2023/03/08 08:02:16;;;;;;;8.40;4.77;;;;;;;;;;5003522;28;20076;-82
2023/03/08 08:04:41;;;;;;;10.87;5.10;;;;;;;;;;5002095;28;20033;-80
2023/03/08 08:07:11;;;;;;;14.50;5.93;;;;;;;;;;4990096;28;20067;-82
2023/03/08 08:09:37;;;;;;;9.37;4.93;;;;;;;;;;5016816;28;20041;-81
2023/03/08 08:12:04;;;;;;;8.50;4.10;;;;;;;;;;5007609;28;20026;-80
2023/03/08 08:14:29;;;;;;;10.90;5.10;;;;;;;;;;5010038;28;20030;-79
2023/03/08 08:16:55;;;;;;;12.83;5.37;;;;;;;;;;5015104;28;20029;-80
2023/03/08 08:19:21;;;;;;;10.10;4.60;;;;;;;;;;5005451;28;20464;-83
2023/03/08 08:21:46;;;;;;;11.10;4.97;;;;;;;;;;5003373;28;20029;-81
2023/03/08 08:24:13;;;;;;;14.57;5.50;;;;;;;;;;5006573;28;20056;-83
2023/03/08 08:26:38;;;;;;;10.30;4.97;;;;;;;;;;4998262;28;20030;-80
2023/03/08 08:29:04;;;;;;;12.73;4.73;;;;;;;;;;5005555;28;20601;-82
2023/03/08 08:31:30;;;;;;;11.57;5.50;;;;;;;;;;5004065;28;20038;-79
2023/03/08 08:33:57;;;;;;;10.20;5.43;;;;;;;;;;5011454;28;20042;-78
2023/03/08 08:36:23;;;;;;;12.07;5.50;;;;;;;;;;5006541;28;20025;-82
2023/03/08 08:38:49;;;;;;;12.37;5.67;;;;;;;;;;5003229;28;20433;-81
2023/03/08 08:41:17;;;;;;;14.50;6.20;;;;;;;;;;5006013;28;20293;-82
2023/03/08 08:43:44;;;;;;;17.80;7.57;;;;;;;;;;5022054;28;20125;-82
2023/03/08 08:46:12;;;;;;;9.63;5.30;;;;;;;;;;5004076;28;20109;-82
2023/03/08 08:48:39;;;;;;;10.97;5.33;;;;;;;;;;5004040;28;20036;-82
2023/03/08 08:51:07;;;;;;;10.00;5.43;;;;;;;;;;5006842;28;20040;-81
2023/03/08 08:53:33;;;;;;;11.40;5.43;;;;;;;;;;5003921;28;20291;-82
2023/03/08 08:56:18;;;;;;;13.77;6.03;;;;;;;;;;4993830;28;20034;-81
2023/03/08 08:58:46;;;;;;;12.83;6.00;;;;;;;;;;5006028;28;20032;-80
2023/03/08 09:01:22;;;;;;;15.10;6.30;;;;;;;;;;5003542;28;20026;-80
2023/03/08 09:03:48;;;;;;;11.30;5.63;;;;;;;;;;5005571;28;20034;-80
2023/03/08 09:06:16;;;;;;;13.03;6.23;;;;;;;;;;5004521;28;20041;-79
2023/03/08 09:08:43;;;;;;;14.10;6.20;;;;;;;;;;5003616;28;20052;-82
2023/03/08 09:11:09;;;;;;;11.80;5.70;;;;;;;;;;5003783;28;20030;-80
2023/03/08 09:13:40;;;;;;;14.70;6.30;;;;;;;;;;5000839;28;20449;-81
2023/03/08 09:16:35;;;;;;;15.13;6.03;;;;;;;;;;5007076;28;20045;-80
2023/03/08 09:19:03;;;;;;;11.20;6.03;;;;;;;;;;5006555;28;20057;-81
2023/03/08 09:21:30;;;;;;;12.40;6.50;;;;;;;;;;5004379;28;20034;-84
2023/03/08 09:24:00;;;;;;;10.23;5.53;;;;;;;;;;5003938;28;20140;-78
2023/03/08 09:26:29;;;;;;;10.77;6.07;;;;;;;;;;4999664;28;20049;-83
2023/03/08 09:28:54;;;;;;;17.40;6.40;;;;;;;;;;4995009;28;20040;-78
2023/03/08 09:31:20;;;;;;;13.80;6.00;;;;;;;;;;5000470;28;20037;-81
2023/03/08 09:33:48;;;;;;;11.67;5.53;;;;;;;;;;5004160;28;20025;-80
2023/03/08 09:36:15;;;;;;;12.13;6.23;;;;;;;;;;5005507;28;20465;-78
2023/03/08 09:38:42;;;;;;;13.73;6.30;;;;;;;;;;5013623;28;20034;-81
2023/03/08 09:41:24;;;;;;;9.98;5.40;;;;;;;;;;4999539;28;20054;-81
2023/03/08 09:44:27;;;;;;;12.40;6.30;;;;;;;;;;5002751;28;20031;-79
2023/03/08 09:47:00;;;;;;;11.13;5.25;;;;;;;;;;5003795;28;20477;-80
2023/03/08 09:49:29;;;;;;;11.50;5.23;;;;;;;;;;4996312;28;20045;-81
2023/03/08 09:52:13;;;;;;;9.90;5.57;;;;;;;;;;4996211;28;20157;-79
2023/03/08 09:54:39;;;;;;;15.23;5.87;;;;;;;;;;5000614;28;20041;-80
2023/03/08 09:57:13;;;;;;;9.60;5.10;;;;;;;;;;5003463;28;20056;-80
2023/03/08 09:59:46;;;;;;;14.37;5.80;;;;;;;;;;4995050;28;20030;-82
2023/03/08 10:02:39;;;;;;;9.33;4.47;;;;;;;;;;4999991;28;20146;-82
2023/03/08 10:05:30;;;;;;;12.40;5.75;;;;;;;;;;4984626;28;20034;-79
2023/03/08 10:08:33;;;;;;;9.53;4.83;;;;;;;;;;5016094;28;20030;-80
2023/03/08 10:11:23;;;;;;;10.93;5.67;;;;;;;;;;4982667;28;20034;-81
2023/03/08 10:13:55;;;;;;;15.88;5.57;;;;;;;;;;5001787;28;20052;-80
2023/03/08 10:16:49;;;;;;;9.45;4.90;;;;;;;;;;5019194;28;20030;-78
2023/03/08 10:19:27;;;;;;;12.27;5.50;;;;;;;;;;5013710;28;20136;-80
2023/03/08 10:22:00;;;;;;;18.73;5.30;;;;;;;;;;4999824;28;20026;-79
2023/03/08 10:24:51;;;;;;;9.23;4.83;;;;;;;;;;5001746;28;20378;-80
2023/03/08 10:27:20;;;;;;;10.93;4.47;;;;;;;;;;5001999;28;20390;-79
2023/03/08 10:29:52;;;;;;;9.75;4.35;;;;;;;;;;4999845;28;20134;-79
2023/03/08 10:32:17;;;;;;;9.23;4.40;;;;;;;;;;4996996;28;20036;-78
2023/03/08 10:34:44;;;;;;;12.87;4.37;;;;;;;;;;5015476;28;20178;-78
2023/03/08 10:37:11;;;;;;;9.97;4.47;;;;;;;;;;4991285;28;20038;-77
2023/03/08 10:39:58;;;;;;;9.57;4.83;;;;;;;;;;5000956;28;20058;-79
2023/03/08 10:42:27;;;;;;;8.37;4.27;;;;;;;;;;5006393;28;20107;-79
2023/03/08 10:45:13;;;;;;;8.07;4.57;;;;;;;;;;5006089;28;20393;-78
2023/03/08 10:47:39;;;;;;;9.30;4.70;;;;;;;;;;5009222;28;20033;-79
2023/03/08 10:50:08;;;;;;;10.13;5.00;;;;;;;;;;5001084;28;20097;-77
2023/03/08 10:52:34;;;;;;;10.73;4.93;;;;;;;;;;5003375;28;20026;-79
2023/03/08 10:55:17;;;;;;;11.80;5.70;;;;;;;;;;5002598;28;20030;-77
2023/03/08 10:58:00;;;;;;;9.33;5.17;;;;;;;;;;5005088;28;20037;-77
2023/03/08 11:00:33;;;;;;;11.33;5.90;;;;;;;;;;4997328;28;20037;-78
2023/03/08 11:03:33;;;;;;;12.97;6.37;;;;;;;;;;5002249;28;20041;-76
2023/03/08 11:06:02;;;;;;;14.90;5.87;;;;;;;;;;5005055;28;20124;-78
2023/03/08 11:08:40;;;;;;;11.23;5.18;;;;;;;;;;4994360;28;20612;-78
2023/03/08 11:11:11;;;;;;;10.30;5.87;;;;;;;;;;4995907;28;20037;-77
2023/03/08 11:13:43;;;;;;;9.93;5.38;;;;;;;;;;5012967;28;20030;-77
2023/03/08 11:16:31;;;;;;;15.05;5.57;;;;;;;;;;4999428;28;20061;-78
2023/03/08 11:19:15;;;;;;;10.07;5.20;;;;;;;;;;5002275;28;20034;-77
2023/03/08 11:22:13;;;;;;;10.43;5.50;;;;;;;;;;5008889;28;20029;-76
2023/03/08 11:25:20;;;;;;;10.37;5.07;;;;;;;;;;5006552;28;20038;-79
2023/03/08 11:27:57;;;;;;;16.20;5.40;;;;;;;;;;5005818;28;20032;-78
2023/03/08 11:30:44;;;;;;;10.88;4.88;;;;;;;;;;5001727;28;20030;-79
2023/03/08 11:33:31;;;;;;;13.50;5.17;;;;;;;;;;5010019;28;20025;-79
2023/03/08 11:36:30;;;;;;;10.50;5.60;;;;;;;;;;5014759;28;20092;-77
2023/03/08 11:39:03;;;;;;;15.80;5.70;;;;;;;;;;5006729;28;20044;-78
2023/03/08 11:41:38;;;;;;;23.10;7.37;;;;;;;;;;5006693;28;20026;-79
2023/03/08 11:44:22;;;;;;;13.13;5.50;;;;;;;;;;4997167;28;20057;-77
2023/03/08 11:47:29;;;;;;;13.67;5.83;;;;;;;;;;5003358;28;20018;-79
2023/03/08 11:50:11;;;;;;;10.47;5.27;;;;;;;;;;5014139;28;20593;-78
2023/03/08 11:53:18;;;;;;;11.43;5.63;;;;;;;;;;5006828;28;20030;-78
2023/03/08 11:56:02;;;;;;;14.40;6.17;;;;;;;;;;5010938;28;20029;-78
2023/03/08 11:58:40;;;;;;;12.07;6.20;;;;;;;;;;5003820;28;20034;-78
2023/03/08 12:01:18;;;;;;;11.00;5.87;;;;;;;;;;5004080;28;20034;-78
2023/03/08 12:03:51;;;;;;;12.67;6.20;;;;;;;;;;5006946;28;20083;-79
2023/03/08 12:06:30;;;;;;;13.80;5.47;;;;;;;;;;5005296;28;20482;-80
2023/03/08 12:09:17;;;;;;;11.03;5.43;;;;;;;;;;5017397;28;20068;-79
2023/03/08 12:12:01;;;;;;;12.23;5.80;;;;;;;;;;5003197;28;20114;-80
2023/03/08 12:14:34;;;;;;;10.97;5.70;;;;;;;;;;5002305;28;20025;-80
2023/03/08 12:17:18;;;;;;;13.60;5.93;;;;;;;;;;5005417;28;20022;-79
2023/03/08 12:19:49;;;;;;;28.77;6.50;;;;;;;;;;5004612;28;20128;-82
2023/03/08 12:22:41;;;;;;;10.30;5.30;;;;;;;;;;5004941;28;20076;-79
2023/03/08 12:25:19;;;;;;;;;;;;;;;;;;5004395;28;20026;-81
2023/03/08 12:28:07;;;;;;;11.57;5.90;;;;;;;;;;5000544;28;19917;-82
2023/03/08 12:31:00;;;;;;;11.30;5.83;;;;;;;;;;5019667;28;20089;-81
2023/03/08 12:33:48;;;;;;;11.60;5.33;;;;;;;;;;5019557;28;20728;-79
2023/03/08 12:36:14;;;;;;;9.83;5.30;;;;;;;;;;5005380;28;20160;-79
2023/03/08 12:38:45;;;;;;;17.23;6.43;;;;;;;;;;5009208;28;20533;-79
2023/03/08 12:41:37;;;;;;;15.50;6.93;;;;;;;;;;4993615;28;20046;-78
2023/03/08 12:44:23;;;;;;;14.13;6.00;;;;;;;;;;5001536;28;20034;-80
2023/03/08 12:46:55;;;;;;;13.70;6.03;;;;;;;;;;5005516;28;20579;-79
2023/03/08 12:49:36;;;;;;;11.23;5.55;;;;;;;;;;5008145;28;20325;-79
2023/03/08 12:52:22;;;;;;;11.67;5.50;;;;;;;;;;5004085;28;20056;-77
2023/03/08 12:54:55;;;;;;;11.27;5.77;;;;;;;;;;5007729;28;20034;-79
2023/03/08 12:57:23;;;;;;;10.43;5.37;;;;;;;;;;5003877;28;20203;-78
2023/03/08 12:59:57;;;;;;;12.63;5.90;;;;;;;;;;5003840;28;20029;-81
2023/03/08 13:02:32;;;;;;;12.07;5.20;;;;;;;;;;4988974;28;20125;-80
2023/03/08 13:05:18;;;;;;;9.53;5.63;;;;;;;;;;5005202;28;20084;-78
2023/03/08 13:08:02;;;;;;;13.50;6.00;;;;;;;;;;5005762;28;20088;-79
2023/03/08 13:10:33;;;;;;;12.20;6.03;;;;;;;;;;5003758;28;20041;-79
2023/03/08 13:13:08;;;;;;;10.80;5.60;;;;;;;;;;5005448;28;20053;-79
2023/03/08 13:15:34;;;;;;;10.20;5.07;;;;;;;;;;5018110;28;20098;-79
2023/03/08 13:18:18;;;;;;;14.70;6.77;;;;;;;;;;5004924;28;20392;-78
2023/03/08 13:20:47;;;;;;;13.33;7.27;;;;;;;;;;5002587;28;20029;-79
2023/03/08 13:23:12;;;;;;;14.73;7.33;;;;;;;;;;4995313;28;20030;-79
2023/03/08 13:26:08;;;;;;;12.53;6.20;;;;;;;;;;5005423;28;20034;-79
2023/03/08 13:28:40;;;;;;;15.67;7.73;;;;;;;;;;5015465;28;20137;-82
2023/03/08 13:31:14;;;;;;;13.77;7.10;;;;;;;;;;5001703;28;20044;-79
2023/03/08 13:33:54;;;;;;;12.93;6.27;;;;;;;;;;4998593;28;20428;-77
2023/03/08 13:36:25;;;;;;;15.87;7.27;;;;;;;;;;4998839;28;20188;-79
2023/03/08 13:39:32;;;;;;;14.33;7.13;;;;;;;;;;5008083;28;20030;-80
2023/03/08 13:42:09;;;;;;;17.50;7.10;;;;;;;;;;5003593;28;20395;-78
2023/03/08 13:44:35;;;;;;;17.17;7.87;;;;;;;;;;5013651;28;20175;-78
2023/03/08 13:47:14;;;;;;;12.73;7.40;;;;;;;;;;4992618;28;20168;-77
2023/03/08 13:49:44;;;;;;;15.73;7.47;;;;;;;;;;5002621;28;20040;-80
2023/03/08 13:52:17;;;;;;;15.93;7.67;;;;;;;;;;4990519;28;20030;-78
2023/03/08 13:54:48;;;;;;;14.03;6.30;;;;;;;;;;5003923;28;20201;-82
2023/03/08 13:57:35;;;;;;;14.23;6.73;;;;;;;;;;5006124;28;20122;-81
2023/03/08 14:00:23;;;;;;;14.80;7.33;;;;;;;;;;4999087;28;20038;-80
2023/03/08 14:02:49;;;;;;;12.67;6.20;;;;;;;;;;4999782;28;20014;-79
2023/03/08 14:05:21;;;;;;;15.53;8.53;;;;;;;;;;4998612;28;20033;-79
2023/03/08 14:08:03;;;;;;;17.07;8.47;;;;;;;;;;4996922;28;20071;-78
2023/03/08 14:10:44;;;;;;;11.77;6.63;;;;;;;;;;5012565;28;20041;-79
2023/03/08 14:13:21;;;;;;;18.63;6.53;;;;;;;;;;5005592;28;20029;-82
2023/03/08 14:15:49;;;;;;;16.80;6.80;;;;;;;;;;4986835;28;20080;-78
2023/03/08 14:18:55;;;;;;;16.30;7.13;;;;;;;;;;5005159;28;20034;-77
2023/03/08 14:21:27;;;;;;;12.50;6.47;;;;;;;;;;5002887;28;20041;-77
2023/03/08 14:23:57;;;;;;;13.88;7.05;;;;;;;;;;5003394;28;20108;-78
2023/03/08 14:26:38;;;;;;;13.80;7.40;;;;;;;;;;5005647;28;20068;-79
2023/03/08 14:29:25;;;;;;;13.37;6.33;;;;;;;;;;5005282;28;20030;-80
2023/03/08 14:31:51;;;;;;;15.73;7.43;;;;;;;;;;5005549;28;20022;-79
2023/03/08 14:34:27;;;;;;;14.17;7.37;;;;;;;;;;5007782;28;20026;-79
2023/03/08 14:36:56;;;;;;;14.50;8.00;;;;;;;;;;5003003;28;20022;-80
2023/03/08 14:39:23;;;;;;;12.90;6.67;;;;;;;;;;5007039;28;20034;-77
2023/03/08 14:41:49;;;;;;;15.97;7.80;;;;;;;;;;5006347;28;20083;-81
2023/03/08 14:44:20;;;;;;;16.20;7.20;;;;;;;;;;5008418;28;20478;-80
2023/03/08 14:46:46;;;;;;;15.77;7.83;;;;;;;;;;5009639;28;20034;-79
2023/03/08 14:49:23;;;;;;;18.57;8.23;;;;;;;;;;5007608;28;20055;-79
2023/03/08 14:51:49;;;;;;;14.17;6.97;;;;;;;;;;5004578;28;20104;-77
2023/03/08 14:54:35;;;;;;;16.03;7.83;;;;;;;;;;5005499;28;20450;-79